createdAt,value
2023-01-24T00:01:27.082Z,22.05
2023-01-24T00:06:47.751Z,17.63
2023-01-24T00:12:08.316Z,20.77
2023-01-24T00:17:28.990Z,17.33
2023-01-24T00:22:49.739Z,17.45
2023-01-24T00:28:10.437Z,15.50
2023-01-24T00:33:31.412Z,17.27
2023-01-24T00:38:53.759Z,13.43
2023-01-24T00:44:14.740Z,18.30
2023-01-24T00:49:35.619Z,20.80
2023-01-24T00:54:56.870Z,14.85
2023-01-24T01:00:17.942Z,18.77
2023-01-24T01:05:38.896Z,16.13
2023-01-24T01:11:00.528Z,15.35
2023-01-24T01:16:21.639Z,21.20
2023-01-24T01:21:45.467Z,21.88
2023-01-24T01:27:06.410Z,19.92
2023-01-24T01:32:27.161Z,17.08
2023-01-24T01:37:47.909Z,19.02
2023-01-24T01:43:15.605Z,19.10
2023-01-24T01:48:40.542Z,14.65
2023-01-24T01:54:06.873Z,20.58
2023-01-24T01:59:31.580Z,18.60
2023-01-24T02:05:06.061Z,16.23
2023-01-24T02:10:48.955Z,20.13
2023-01-24T02:16:11.816Z,13.60
2023-01-24T02:21:33.739Z,20.30
2023-01-24T02:26:54.911Z,22.77
2023-01-24T02:32:17.499Z,16.65
2023-01-24T02:37:38.620Z,18.55
2023-01-24T02:43:02.231Z,17.17
2023-01-24T02:48:22.884Z,19.83
2023-01-24T02:53:43.668Z,19.30
2023-01-24T02:59:04.319Z,19.63
2023-01-24T03:04:27.210Z,19.77
2023-01-24T03:09:47.915Z,24.13
2023-01-24T03:15:32.867Z,13.75
2023-01-24T03:21:12.111Z,16.15
2023-01-24T03:26:51.621Z,22.13
2023-01-24T03:32:33.383Z,20.58
2023-01-24T03:38:13.383Z,17.13
2023-01-24T03:43:34.750Z,17.67
2023-01-24T03:48:55.852Z,23.85
2023-01-24T03:54:25.303Z,19.47
2023-01-24T03:59:52.157Z,25.77
2023-01-24T04:05:14.398Z,16.63
2023-01-24T04:10:37.435Z,20.35
2023-01-24T04:15:58.169Z,16.88
2023-01-24T04:21:39.011Z,27.60
2023-01-24T04:26:59.731Z,24.27
2023-01-24T04:32:26.509Z,26.52
2023-01-24T04:37:53.373Z,20.27
2023-01-24T04:43:29.260Z,27.08
2023-01-24T04:48:51.518Z,25.17
2023-01-24T04:54:12.866Z,23.58
2023-01-24T04:59:34.310Z,26.23
2023-01-24T05:04:55.157Z,21.83
2023-01-24T05:10:16.593Z,28.60
2023-01-24T05:15:50.548Z,28.10
2023-01-24T05:21:14.980Z,31.92
2023-01-24T05:26:37.313Z,24.73
2023-01-24T05:31:58.406Z,26.52
2023-01-24T05:37:19.039Z,22.77
2023-01-24T05:42:44.114Z,23.63
2023-01-24T05:48:06.202Z,18.70
2023-01-24T05:53:29.337Z,23.88
2023-01-24T05:58:50.452Z,24.98
2023-01-24T06:04:13.169Z,25.10
2023-01-24T06:09:34.425Z,28.70
2023-01-24T06:14:56.106Z,22.00
2023-01-24T06:20:17.343Z,28.50
2023-01-24T06:25:38.537Z,26.83
2023-01-24T06:31:06.057Z,24.08
2023-01-24T06:36:41.983Z,30.65
2023-01-24T06:42:03.110Z,25.67
2023-01-24T06:47:26.220Z,22.13
2023-01-24T06:52:49.010Z,25.35
2023-01-24T06:58:09.898Z,23.33
2023-01-24T07:03:30.555Z,28.23
2023-01-24T07:08:51.261Z,27.58
2023-01-24T07:14:11.886Z,21.15
2023-01-24T07:19:32.998Z,27.13
2023-01-24T07:24:54.503Z,28.73
2023-01-24T07:30:15.358Z,22.20
2023-01-24T07:35:36.032Z,28.52
2023-01-24T07:40:56.741Z,30.92
2023-01-24T07:46:17.509Z,27.50
2023-01-24T07:51:38.414Z,24.63
2023-01-24T07:56:59.032Z,29.40
2023-01-24T08:02:19.797Z,22.40
2023-01-24T08:07:40.543Z,23.52
2023-01-24T08:13:01.312Z,24.90
2023-01-24T08:18:21.926Z,21.50
2023-01-24T08:23:42.719Z,23.10
2023-01-24T08:29:03.908Z,25.02
2023-01-24T08:34:24.544Z,23.02
2023-01-24T08:39:45.261Z,25.55
2023-01-24T08:45:06.343Z,22.85
2023-01-24T08:50:28.187Z,26.25
2023-01-24T08:55:50.548Z,26.13
2023-01-24T09:01:12.065Z,26.42
2023-01-24T09:06:33.627Z,25.15
2023-01-24T09:11:54.403Z,24.35
2023-01-24T09:17:15.062Z,18.23
2023-01-24T09:22:36.219Z,27.15
2023-01-24T09:27:57.237Z,26.65
2023-01-24T09:33:19.180Z,18.42
2023-01-24T09:38:40.068Z,27.95
2023-01-24T09:44:04.145Z,17.08
2023-01-24T09:49:51.802Z,23.08
2023-01-24T09:55:38.319Z,28.45
2023-01-24T10:01:06.408Z,22.67
2023-01-24T10:06:30.434Z,25.75
2023-01-24T10:12:17.231Z,26.00
2023-01-24T10:17:53.147Z,25.98
2023-01-24T10:23:22.264Z,29.13
2023-01-24T10:28:52.734Z,29.08
2023-01-24T10:34:25.737Z,23.77
2023-01-24T10:39:46.725Z,24.90
2023-01-24T10:45:35.494Z,18.98
2023-01-24T10:51:17.441Z,23.77
2023-01-24T10:56:42.075Z,22.77
2023-01-24T11:02:03.288Z,22.25
2023-01-24T11:07:39.781Z,23.33
2023-01-24T11:13:02.661Z,22.13
2023-01-24T11:18:28.729Z,18.25
2023-01-24T11:24:08.228Z,17.98
2023-01-24T11:29:29.477Z,22.75
2023-01-24T11:34:50.470Z,19.38
2023-01-24T11:40:29.430Z,23.05
2023-01-24T11:46:12.147Z,18.83
2023-01-24T11:51:51.279Z,16.63
2023-01-24T11:57:24.532Z,19.10
2023-01-24T12:02:54.587Z,14.77
2023-01-24T12:14:16.393Z,17.10
2023-01-24T12:19:46.176Z,17.05
2023-01-24T12:25:26.837Z,16.05
2023-01-24T12:30:54.928Z,17.25
2023-01-24T12:36:42.260Z,17.58
2023-01-24T12:42:22.922Z,16.20
2023-01-24T12:47:52.920Z,18.00
2023-01-24T12:53:27.660Z,17.17
2023-01-24T12:58:52.760Z,19.77
2023-01-24T13:04:24.588Z,14.20
2023-01-24T13:10:36.148Z,13.30
2023-01-24T13:16:14.910Z,18.75
2023-01-24T13:21:51.335Z,19.30
2023-01-24T13:27:16.917Z,14.93
2023-01-24T13:32:39.836Z,18.90
2023-01-24T13:38:16.733Z,16.75
2023-01-24T13:43:37.334Z,19.58
2023-01-24T13:48:58.675Z,16.98
2023-01-24T13:54:35.509Z,15.23
2023-01-24T14:00:15.667Z,15.40
2023-01-24T14:06:04.683Z,16.33
2023-01-24T14:11:36.589Z,14.88
2023-01-24T14:17:00.305Z,16.58
2023-01-24T14:22:28.354Z,19.25
2023-01-24T14:27:56.372Z,17.23
2023-01-24T14:33:28.037Z,15.57
2023-01-24T14:38:48.884Z,12.80
2023-01-24T14:44:23.163Z,17.70
2023-01-24T14:49:47.119Z,16.77
2023-01-24T14:55:43.402Z,14.73
2023-01-24T15:01:04.482Z,16.98
2023-01-24T15:06:28.159Z,13.48
2023-01-24T15:11:49.043Z,19.55
2023-01-24T15:17:25.582Z,17.75
2023-01-24T15:22:53.922Z,13.80
2023-01-24T15:28:30.253Z,19.45
2023-01-24T15:33:59.854Z,14.80
2023-01-24T15:39:20.982Z,14.93
2023-01-24T15:44:51.109Z,14.65
2023-01-24T15:50:59.305Z,15.40
2023-01-24T15:56:23.077Z,17.30
2023-01-24T16:01:44.331Z,18.60
2023-01-24T16:07:05.059Z,17.10
2023-01-24T16:12:35.502Z,19.30
2023-01-24T16:17:56.461Z,20.77
2023-01-24T16:23:17.235Z,34.28
2023-01-24T16:28:38.459Z,24.15
2023-01-24T16:33:59.334Z,22.23
2023-01-24T16:39:22.535Z,19.35
2023-01-24T16:44:43.987Z,17.35
2023-01-24T16:50:05.788Z,19.50
2023-01-24T16:55:26.791Z,23.60
2023-01-24T17:00:47.736Z,20.13
2023-01-24T17:06:09.755Z,20.42
2023-01-24T17:11:31.473Z,17.58
2023-01-24T17:16:52.313Z,22.63
2023-01-24T17:22:13.387Z,22.75
2023-01-24T17:27:34.380Z,26.10
2023-01-24T17:32:55.386Z,27.63
2023-01-24T17:38:17.348Z,25.60
2023-01-24T17:43:51.611Z,27.08
2023-01-24T17:49:13.448Z,29.63
2023-01-24T17:54:34.503Z,27.35
2023-01-24T17:59:55.287Z,22.95
2023-01-24T18:05:16.133Z,32.55
2023-01-24T18:10:38.206Z,26.17
2023-01-24T18:16:06.582Z,32.10
2023-01-24T18:21:27.670Z,28.63
2023-01-24T18:26:48.304Z,29.00
2023-01-24T18:32:09.063Z,31.63
2023-01-24T18:37:29.986Z,31.00
2023-01-24T18:42:50.798Z,30.02
2023-01-24T18:48:11.426Z,31.55
2023-01-24T18:53:32.359Z,33.15
2023-01-24T18:58:53.060Z,42.78
2023-01-24T19:04:13.852Z,31.90
2023-01-24T19:09:34.797Z,34.25
2023-01-24T19:14:55.668Z,33.03
2023-01-24T19:27:13.310Z,33.25
2023-01-24T19:32:37.246Z,31.83
2023-01-24T19:37:57.923Z,39.58
2023-01-24T19:43:18.902Z,29.48
2023-01-24T19:48:40.335Z,33.05
2023-01-24T19:54:01.037Z,32.33
2023-01-24T19:59:22.659Z,36.38
2023-01-24T20:04:52.018Z,38.42
2023-01-24T20:10:14.217Z,36.55
2023-01-24T20:15:34.933Z,36.88
2023-01-24T20:20:55.722Z,32.10
2023-01-24T20:26:16.719Z,33.17
2023-01-24T20:31:37.639Z,30.63
2023-01-24T20:36:58.537Z,28.17
2023-01-24T20:42:19.376Z,36.03
2023-01-24T20:47:40.543Z,40.15
2023-01-24T20:53:01.152Z,37.13
2023-01-24T20:58:22.648Z,44.67
2023-01-24T21:03:43.936Z,44.28
2023-01-24T21:09:05.483Z,37.40
2023-01-24T21:14:27.215Z,43.58
2023-01-24T21:19:48.457Z,40.35
2023-01-24T21:25:10.355Z,42.40
2023-01-24T21:30:32.062Z,41.92
2023-01-24T21:36:03.724Z,42.08
2023-01-24T21:41:42.930Z,41.60
2023-01-24T21:47:05.252Z,44.70
2023-01-24T21:52:25.838Z,46.40
2023-01-24T21:58:15.784Z,43.15
2023-01-24T22:03:36.712Z,40.13
2023-01-24T22:08:57.495Z,43.00
2023-01-24T22:14:24.328Z,43.13
2023-01-24T22:19:56.494Z,47.00
2023-01-24T22:25:44.185Z,45.97
2023-01-24T22:31:05.376Z,42.30
2023-01-24T22:36:26.386Z,34.20
2023-01-24T22:41:47.013Z,41.10
2023-01-24T22:47:07.696Z,42.60
2023-01-24T22:52:28.410Z,39.78
2023-01-24T22:57:49.202Z,40.53
2023-01-24T23:03:09.687Z,37.28
2023-01-24T23:08:30.322Z,41.47
2023-01-24T23:14:10.067Z,35.67
2023-01-24T23:19:52.505Z,43.23
2023-01-24T23:25:13.418Z,34.05
2023-01-24T23:30:54.296Z,38.70
2023-01-24T23:36:15.035Z,38.83
2023-01-24T23:41:35.682Z,37.97
2023-01-24T23:46:56.380Z,36.33
2023-01-24T23:52:18.101Z,36.40
2023-01-24T23:57:38.752Z,37.70
